createdAt,value
2016-07-20T00:00:05.480Z,22.3
2016-07-20T00:00:15.477Z,22.3
2016-07-20T00:00:25.472Z,22.3
2016-07-20T00:00:35.469Z,22.3
2016-07-20T00:00:45.467Z,22.3
2016-07-20T00:00:55.461Z,22.3
2016-07-20T00:01:05.455Z,22.3
2016-07-20T00:01:15.451Z,22.3
2016-07-20T00:01:25.447Z,22.3
2016-07-20T00:01:35.443Z,22.3
2016-07-20T00:01:45.438Z,22.3
2016-07-20T00:01:55.433Z,22.3
2016-07-20T00:02:05.429Z,22.3
2016-07-20T00:02:15.430Z,22.3
2016-07-20T00:02:25.420Z,22.3
2016-07-20T00:02:35.414Z,22.3
2016-07-20T00:02:45.413Z,22.3
2016-07-20T00:02:55.410Z,22.3
2016-07-20T00:03:05.401Z,22.3
2016-07-20T00:03:15.400Z,22.3
2016-07-20T00:03:25.396Z,22.3
2016-07-20T00:03:35.389Z,22.3
2016-07-20T00:03:45.387Z,22.3
2016-07-20T00:03:55.380Z,22.3
2016-07-20T00:04:05.376Z,22.3
2016-07-20T00:04:15.374Z,22.3
2016-07-20T00:04:25.368Z,22.3
2016-07-20T00:04:35.364Z,22.3
2016-07-20T00:04:45.367Z,22.3
2016-07-20T00:04:55.356Z,22.3
2016-07-20T00:05:05.352Z,22.3
2016-07-20T00:05:15.345Z,22.3
2016-07-20T00:05:25.342Z,22.3
2016-07-20T00:05:35.346Z,22.3
2016-07-20T00:05:45.333Z,22.3
2016-07-20T00:05:55.331Z,22.3
2016-07-20T00:06:05.328Z,22.3
2016-07-20T00:06:15.326Z,22.3
2016-07-20T00:06:25.319Z,22.3
2016-07-20T00:06:35.314Z,22.3
2016-07-20T00:06:45.310Z,22.3
2016-07-20T00:06:55.304Z,22.3
2016-07-20T00:07:05.298Z,22.3
2016-07-20T00:07:15.295Z,22.3
2016-07-20T00:07:25.292Z,22.3
2016-07-20T00:07:35.288Z,22.3
2016-07-20T00:07:45.284Z,22.3
2016-07-20T00:07:55.282Z,22.3
2016-07-20T00:08:05.277Z,22.3
2016-07-20T00:08:15.273Z,22.3
2016-07-20T00:08:25.264Z,22.3
2016-07-20T00:08:35.263Z,22.3
2016-07-20T00:08:45.260Z,22.3
2016-07-20T00:08:55.255Z,22.3
2016-07-20T00:09:05.251Z,22.3
2016-07-20T00:09:15.247Z,22.3
2016-07-20T00:09:25.238Z,22.2
2016-07-20T00:09:35.239Z,22.3
2016-07-20T00:09:45.231Z,22.2
2016-07-20T00:09:55.228Z,22.2
2016-07-20T00:10:05.225Z,22.2
2016-07-20T00:10:15.217Z,22.2
2016-07-20T00:10:25.217Z,22.2
2016-07-20T00:10:35.212Z,22.2
2016-07-20T00:10:45.205Z,22.2
2016-07-20T00:10:55.201Z,22.3
2016-07-20T00:11:05.203Z,22.2
2016-07-20T00:11:15.194Z,22.2
2016-07-20T00:11:25.191Z,22.2
2016-07-20T00:11:35.188Z,22.2
2016-07-20T00:11:45.177Z,22.2
2016-07-20T00:11:55.174Z,22.2
2016-07-20T00:12:05.169Z,22.2
2016-07-20T00:12:15.165Z,22.2
2016-07-20T00:12:25.162Z,22.2
2016-07-20T00:12:35.156Z,22.2
2016-07-20T00:12:45.157Z,22.2
2016-07-20T00:12:55.151Z,22.2
2016-07-20T00:13:05.144Z,22.2
2016-07-20T00:13:15.142Z,22.2
2016-07-20T00:13:25.140Z,22.2
2016-07-20T00:13:35.130Z,22.2
2016-07-20T00:13:45.127Z,22.2
2016-07-20T00:13:55.124Z,22.2
2016-07-20T00:14:05.119Z,22.2
2016-07-20T00:14:15.114Z,22.2
2016-07-20T00:14:25.109Z,22.2
2016-07-20T00:14:35.107Z,22.2
2016-07-20T00:14:45.103Z,22.2
2016-07-20T00:14:55.097Z,22.2
2016-07-20T00:15:05.097Z,22.2
2016-07-20T00:15:15.088Z,22.2
2016-07-20T00:15:25.085Z,22.2
2016-07-20T00:15:35.080Z,22.2
2016-07-20T00:15:45.076Z,22.2
2016-07-20T00:15:55.079Z,22.2
2016-07-20T00:16:05.068Z,22.2
2016-07-20T00:16:15.065Z,22.2
2016-07-20T00:16:25.059Z,22.2
2016-07-20T00:16:35.056Z,22.2
2016-07-20T00:16:45.052Z,22.2
2016-07-20T00:16:55.048Z,22.2
2016-07-20T00:17:05.044Z,22.2
2016-07-20T00:17:15.036Z,22.2
2016-07-20T00:17:25.035Z,22.2
2016-07-20T00:17:35.029Z,22.2
2016-07-20T00:17:45.024Z,22.2
2016-07-20T00:17:55.021Z,22.2
2016-07-20T00:18:05.019Z,22.2
2016-07-20T00:18:15.015Z,22.2
2016-07-20T00:18:25.738Z,22.2
2016-07-20T00:18:35.007Z,22.2
2016-07-20T00:18:45.002Z,22.2
2016-07-20T00:18:54.992Z,22.2
2016-07-20T00:19:04.991Z,22.2
2016-07-20T00:19:14.987Z,22.2
2016-07-20T00:19:24.983Z,22.2
2016-07-20T00:19:34.979Z,22.2
2016-07-20T00:19:44.970Z,22.2
2016-07-20T00:19:54.971Z,22.2
2016-07-20T00:20:04.963Z,22.2
2016-07-20T00:20:14.960Z,22.2
2016-07-20T00:20:24.953Z,22.2
2016-07-20T00:20:34.951Z,22.2
2016-07-20T00:20:44.944Z,22.2
2016-07-20T00:20:54.945Z,22.2
2016-07-20T00:21:04.939Z,22.2
2016-07-20T00:21:14.934Z,22.2
2016-07-20T00:21:24.930Z,22.2
2016-07-20T00:21:34.928Z,22.2
2016-07-20T00:21:44.922Z,22.2
2016-07-20T00:21:54.916Z,22.2
2016-07-20T00:22:04.913Z,22.2
2016-07-20T00:22:14.905Z,22.2
2016-07-20T00:22:24.903Z,22.2
2016-07-20T00:22:34.900Z,22.2
2016-07-20T00:22:44.900Z,22.2
2016-07-20T00:22:54.899Z,22.2
2016-07-20T00:23:04.889Z,22.2
2016-07-20T00:23:14.888Z,22.2
2016-07-20T00:23:24.879Z,22.2
2016-07-20T00:23:34.876Z,22.2
2016-07-20T00:23:44.870Z,22.2
2016-07-20T00:23:54.867Z,22.1
2016-07-20T00:24:05.587Z,22.2
2016-07-20T00:24:14.857Z,22.2
2016-07-20T00:24:24.851Z,22.2
2016-07-20T00:24:34.850Z,22.1
2016-07-20T00:24:44.850Z,22.1
2016-07-20T00:24:54.843Z,22.1
2016-07-20T00:25:04.838Z,22.2
2016-07-20T00:25:14.834Z,22.1
2016-07-20T00:25:24.827Z,22.2
2016-07-20T00:25:34.822Z,22.1
2016-07-20T00:25:44.822Z,22.1
2016-07-20T00:25:54.815Z,22.2
2016-07-20T00:26:04.810Z,22.1
2016-07-20T00:26:14.810Z,22.1
2016-07-20T00:26:24.802Z,22.1
2016-07-20T00:26:34.799Z,22.1
2016-07-20T00:26:44.795Z,22.1
2016-07-20T00:26:54.785Z,22.1
2016-07-20T00:27:04.787Z,22.1
2016-07-20T00:27:14.783Z,22.1
2016-07-20T00:27:24.780Z,22.1
2016-07-20T00:27:34.773Z,22.1
2016-07-20T00:27:44.771Z,22.1
2016-07-20T00:27:54.767Z,22.1
2016-07-20T00:28:04.758Z,22.1
2016-07-20T00:28:14.757Z,22.1
2016-07-20T00:28:24.748Z,22.1
2016-07-20T00:28:34.748Z,22.1
2016-07-20T00:28:44.742Z,22.1
2016-07-20T00:28:54.735Z,22.1
2016-07-20T00:29:04.735Z,22.1
2016-07-20T00:29:14.728Z,22.1
2016-07-20T00:29:24.723Z,22.1
2016-07-20T00:29:34.716Z,22.1
2016-07-20T00:29:44.713Z,22.1
2016-07-20T00:29:54.712Z,22.1
2016-07-20T00:30:04.707Z,22.1
2016-07-20T00:30:14.703Z,22.1
2016-07-20T00:30:24.703Z,22.1
2016-07-20T00:30:34.695Z,22.1
2016-07-20T00:30:44.691Z,22.1
2016-07-20T00:30:54.686Z,22.1
2016-07-20T00:31:04.684Z,22.1
2016-07-20T00:31:14.684Z,22.1
2016-07-20T00:31:24.675Z,22.1
2016-07-20T00:31:34.669Z,22.1
2016-07-20T00:31:44.663Z,22.1
2016-07-20T00:31:54.658Z,22.1
2016-07-20T00:32:04.654Z,22.1
2016-07-20T00:32:14.650Z,22.1
2016-07-20T00:32:24.647Z,22.1
2016-07-20T00:32:34.642Z,22.1
2016-07-20T00:32:44.637Z,22.1
2016-07-20T00:32:54.633Z,22.1
2016-07-20T00:33:04.630Z,22.1
2016-07-20T00:33:14.625Z,22.1
2016-07-20T00:33:24.622Z,22.1
2016-07-20T00:33:34.618Z,22.1
2016-07-20T00:33:44.613Z,22
2016-07-20T00:33:54.607Z,22.1
2016-07-20T00:34:04.607Z,22.1
2016-07-20T00:34:14.601Z,22.1
2016-07-20T00:34:24.594Z,22.1
2016-07-20T00:34:34.594Z,22.1
2016-07-20T00:34:44.588Z,22.1
2016-07-20T00:34:54.583Z,22
2016-07-20T00:35:04.581Z,22.1
2016-07-20T00:35:14.577Z,22
2016-07-20T00:35:24.584Z,22
2016-07-20T00:35:34.569Z,22
2016-07-20T00:35:44.563Z,22
2016-07-20T00:35:54.562Z,22
2016-07-20T00:36:04.557Z,22
2016-07-20T00:36:14.549Z,22
2016-07-20T00:36:24.549Z,22
2016-07-20T00:36:34.543Z,22
2016-07-20T00:36:44.537Z,22
2016-07-20T00:36:54.536Z,22
2016-07-20T00:37:04.528Z,22
2016-07-20T00:37:14.532Z,22
2016-07-20T00:37:24.519Z,22
2016-07-20T00:37:34.517Z,22
2016-07-20T00:37:44.509Z,22
2016-07-20T00:37:54.509Z,22
2016-07-20T00:38:04.502Z,22
2016-07-20T00:38:14.498Z,22
2016-07-20T00:38:24.492Z,22
2016-07-20T00:38:34.489Z,22
2016-07-20T00:38:44.486Z,22
2016-07-20T00:38:54.478Z,22
2016-07-20T00:39:04.474Z,22
2016-07-20T00:39:14.482Z,22
2016-07-20T00:39:24.466Z,22
2016-07-20T00:39:34.461Z,22
2016-07-20T00:39:44.458Z,22
2016-07-20T00:39:54.453Z,22
2016-07-20T00:40:04.451Z,22
2016-07-20T00:40:14.442Z,22
2016-07-20T00:40:24.438Z,22
2016-07-20T00:40:34.443Z,22
2016-07-20T00:40:44.433Z,22
2016-07-20T00:40:54.428Z,22
2016-07-20T00:41:04.426Z,22
2016-07-20T00:41:14.425Z,22
2016-07-20T00:41:24.415Z,22
2016-07-20T00:41:34.412Z,22
2016-07-20T00:41:44.412Z,22
2016-07-20T00:41:54.402Z,22
2016-07-20T00:42:04.396Z,22
2016-07-20T00:42:14.393Z,22
2016-07-20T00:42:24.390Z,22
2016-07-20T00:42:34.388Z,22
2016-07-20T00:42:44.381Z,22
2016-07-20T00:42:54.389Z,22
2016-07-20T00:43:04.375Z,22
2016-07-20T00:43:14.371Z,22
2016-07-20T00:43:24.362Z,22
2016-07-20T00:43:34.360Z,22
2016-07-20T00:43:44.358Z,22
2016-07-20T00:43:54.353Z,22
2016-07-20T00:44:04.349Z,22
2016-07-20T00:44:14.341Z,22
2016-07-20T00:44:24.339Z,22
2016-07-20T00:44:34.333Z,22
2016-07-20T00:44:44.331Z,22
2016-07-20T00:44:54.327Z,22
2016-07-20T00:45:04.326Z,22
2016-07-20T00:45:14.319Z,22
2016-07-20T00:45:24.312Z,22
2016-07-20T00:45:34.308Z,22
2016-07-20T00:45:44.305Z,22
2016-07-20T00:45:54.298Z,22
2016-07-20T00:46:04.295Z,22
2016-07-20T00:46:14.291Z,22
2016-07-20T00:46:24.284Z,22
2016-07-20T00:46:34.283Z,22
2016-07-20T00:46:44.276Z,22
2016-07-20T00:46:54.274Z,22
2016-07-20T00:47:04.270Z,22
2016-07-20T00:47:14.263Z,22
2016-07-20T00:47:24.261Z,22
2016-07-20T00:47:34.256Z,22
2016-07-20T00:47:44.249Z,22
2016-07-20T00:47:54.246Z,22
2016-07-20T00:48:04.241Z,22
2016-07-20T00:48:14.239Z,22
2016-07-20T00:48:24.230Z,22
2016-07-20T00:48:34.228Z,22
2016-07-20T00:48:44.225Z,21.9
2016-07-20T00:48:54.220Z,21.9
2016-07-20T00:49:04.217Z,21.9
2016-07-20T00:49:14.214Z,21.9
2016-07-20T00:49:24.209Z,21.9
2016-07-20T00:49:34.204Z,21.9
2016-07-20T00:49:44.198Z,21.9
2016-07-20T00:49:54.195Z,21.9
2016-07-20T00:50:04.191Z,21.9
2016-07-20T00:50:14.188Z,21.9
2016-07-20T00:50:24.182Z,21.9
2016-07-20T00:50:34.178Z,21.9
2016-07-20T00:50:44.914Z,21.9
2016-07-20T00:50:54.172Z,21.9
2016-07-20T00:51:04.166Z,21.9
2016-07-20T00:51:14.161Z,21.9
2016-07-20T00:51:24.157Z,21.9
2016-07-20T00:51:34.153Z,21.9
2016-07-20T00:51:44.150Z,21.9
2016-07-20T00:51:54.145Z,21.9
2016-07-20T00:52:04.142Z,21.9
2016-07-20T00:52:14.136Z,21.9
2016-07-20T00:52:24.132Z,21.9
2016-07-20T00:52:34.126Z,21.9
2016-07-20T00:52:44.126Z,21.9
2016-07-20T00:52:54.117Z,21.9
2016-07-20T00:53:04.111Z,21.9
2016-07-20T00:53:14.109Z,21.9
2016-07-20T00:53:24.105Z,21.9
2016-07-20T00:53:34.101Z,21.9
2016-07-20T00:53:44.094Z,21.9
2016-07-20T00:53:54.829Z,21.9
2016-07-20T00:54:04.818Z,21.9
2016-07-20T00:54:14.084Z,21.9
2016-07-20T00:54:24.080Z,21.9
2016-07-20T00:54:34.073Z,21.9
2016-07-20T00:54:44.069Z,21.9
2016-07-20T00:54:54.065Z,21.9
2016-07-20T00:55:04.058Z,21.9
2016-07-20T00:55:14.056Z,21.9
2016-07-20T00:55:24.051Z,21.9
2016-07-20T00:55:34.048Z,21.9
2016-07-20T00:55:44.043Z,21.9
2016-07-20T00:55:54.039Z,21.8
2016-07-20T00:56:04.036Z,21.8
2016-07-20T00:56:14.029Z,21.8
2016-07-20T00:56:24.023Z,21.8
2016-07-20T00:56:34.020Z,21.8
2016-07-20T00:56:44.017Z,21.8
2016-07-20T00:56:54.012Z,21.8
2016-07-20T00:57:04.012Z,21.8
2016-07-20T00:57:14.003Z,21.8
2016-07-20T00:57:24.000Z,21.8
2016-07-20T00:57:33.996Z,21.8
2016-07-20T00:57:43.993Z,21.8
2016-07-20T00:57:53.985Z,21.8
2016-07-20T00:58:03.984Z,21.8
2016-07-20T00:58:13.977Z,21.8
2016-07-20T00:58:23.970Z,21.8
2016-07-20T00:58:33.969Z,21.8
2016-07-20T00:58:43.967Z,21.8
2016-07-20T00:58:53.958Z,21.8
2016-07-20T00:59:03.958Z,21.8
2016-07-20T00:59:13.955Z,21.8
2016-07-20T00:59:23.947Z,21.8
2016-07-20T00:59:33.945Z,21.8
2016-07-20T00:59:43.941Z,21.8
2016-07-20T00:59:53.938Z,21.8
2016-07-20T01:00:03.933Z,21.8
2016-07-20T01:00:13.930Z,21.8
2016-07-20T01:00:23.922Z,21.8
2016-07-20T01:00:33.920Z,21.8
2016-07-20T01:00:43.912Z,21.8
2016-07-20T01:00:53.909Z,21.8
2016-07-20T01:01:03.907Z,21.8
2016-07-20T01:01:13.902Z,21.8
2016-07-20T01:01:23.901Z,21.8
2016-07-20T01:01:33.894Z,21.8
2016-07-20T01:01:43.886Z,21.8
2016-07-20T01:01:53.883Z,21.8
2016-07-20T01:02:03.884Z,21.8
2016-07-20T01:02:13.874Z,21.8
2016-07-20T01:02:23.868Z,21.8
2016-07-20T01:02:33.868Z,21.8
2016-07-20T01:02:43.862Z,21.8
2016-07-20T01:02:53.858Z,21.8
2016-07-20T01:03:03.853Z,21.8
2016-07-20T01:03:13.848Z,21.8
2016-07-20T01:03:23.843Z,21.8
2016-07-20T01:03:33.839Z,21.8
2016-07-20T01:03:43.835Z,21.8
2016-07-20T01:03:53.830Z,21.8
2016-07-20T01:04:03.824Z,21.8
2016-07-20T01:04:13.823Z,21.8
2016-07-20T01:04:23.817Z,21.8
2016-07-20T01:04:33.811Z,21.8
2016-07-20T01:04:43.810Z,21.8
2016-07-20T01:04:53.804Z,21.8
2016-07-20T01:05:03.799Z,21.7
2016-07-20T01:05:13.795Z,21.7
2016-07-20T01:05:23.791Z,21.7
2016-07-20T01:05:33.787Z,21.7
2016-07-20T01:05:43.784Z,21.7
2016-07-20T01:05:53.778Z,21.7
2016-07-20T01:06:03.775Z,21.7
2016-07-20T01:06:13.771Z,21.7
2016-07-20T01:06:23.767Z,21.7
2016-07-20T01:06:33.763Z,21.8
2016-07-20T01:06:43.758Z,21.8
2016-07-20T01:06:53.755Z,21.8
2016-07-20T01:07:03.749Z,21.7
2016-07-20T01:07:13.744Z,21.7
2016-07-20T01:07:23.746Z,21.7
2016-07-20T01:07:33.742Z,21.7
2016-07-20T01:07:43.734Z,21.7
2016-07-20T01:07:53.727Z,21.7
2016-07-20T01:08:03.723Z,21.8
2016-07-20T01:08:13.719Z,21.8
2016-07-20T01:08:23.714Z,21.7
2016-07-20T01:08:33.711Z,21.7
2016-07-20T01:08:43.702Z,21.7
2016-07-20T01:08:53.702Z,21.7
2016-07-20T01:09:03.704Z,21.7
2016-07-20T01:09:13.694Z,21.7
2016-07-20T01:09:23.687Z,21.7
2016-07-20T01:09:33.684Z,21.8
2016-07-20T01:09:43.679Z,21.7
2016-07-20T01:09:53.676Z,21.8
2016-07-20T01:10:03.670Z,21.7
2016-07-20T01:10:13.665Z,21.7
2016-07-20T01:10:23.664Z,21.7
2016-07-20T01:10:33.661Z,21.8
2016-07-20T01:10:43.651Z,21.7
2016-07-20T01:10:53.648Z,21.8
2016-07-20T01:11:03.645Z,21.8
2016-07-20T01:11:13.637Z,21.7
2016-07-20T01:11:23.637Z,21.8
2016-07-20T01:11:33.630Z,21.8
2016-07-20T01:11:43.625Z,21.7
2016-07-20T01:11:53.622Z,21.8
2016-07-20T01:12:03.617Z,21.8
2016-07-20T01:12:13.615Z,21.8
2016-07-20T01:12:23.611Z,21.8
2016-07-20T01:12:33.604Z,21.8
2016-07-20T01:12:43.601Z,21.8
2016-07-20T01:12:53.602Z,21.8
2016-07-20T01:13:03.593Z,21.7
2016-07-20T01:13:13.588Z,21.7
2016-07-20T01:13:23.584Z,21.7
2016-07-20T01:13:33.581Z,21.7
2016-07-20T01:13:43.584Z,21.7
2016-07-20T01:13:53.571Z,21.7
2016-07-20T01:14:03.568Z,21.7
2016-07-20T01:14:13.565Z,21.7
2016-07-20T01:14:23.559Z,21.7
2016-07-20T01:14:33.556Z,21.7
2016-07-20T01:14:43.550Z,21.7
2016-07-20T01:14:53.547Z,21.7
2016-07-20T01:15:03.541Z,21.7
2016-07-20T01:15:13.538Z,21.7
2016-07-20T01:15:23.535Z,21.7
2016-07-20T01:15:33.527Z,21.7
2016-07-20T01:15:43.522Z,21.7
2016-07-20T01:15:53.518Z,21.7
2016-07-20T01:16:03.520Z,21.7
2016-07-20T01:16:13.511Z,21.7
2016-07-20T01:16:23.508Z,21.7
2016-07-20T01:16:33.502Z,21.7
2016-07-20T01:16:43.497Z,21.7
2016-07-20T01:16:53.494Z,21.7
2016-07-20T01:17:03.489Z,21.7
2016-07-20T01:17:13.486Z,21.7
2016-07-20T01:17:23.481Z,21.6
2016-07-20T01:17:33.475Z,21.7
2016-07-20T01:17:43.472Z,21.6
2016-07-20T01:17:53.465Z,21.7
2016-07-20T01:18:03.463Z,21.6
2016-07-20T01:18:13.456Z,21.6
2016-07-20T01:18:23.453Z,21.7
2016-07-20T01:18:33.447Z,21.7
2016-07-20T01:18:43.445Z,21.7
2016-07-20T01:18:53.439Z,21.7
2016-07-20T01:19:03.435Z,21.7
2016-07-20T01:19:13.432Z,21.7
2016-07-20T01:19:23.426Z,21.7
2016-07-20T01:19:33.422Z,21.7
2016-07-20T01:19:43.418Z,21.7
2016-07-20T01:19:53.415Z,21.7
2016-07-20T01:20:03.410Z,21.7
2016-07-20T01:20:13.405Z,21.7
2016-07-20T01:20:23.399Z,21.7
2016-07-20T01:20:33.398Z,21.7
2016-07-20T01:20:43.393Z,21.7
2016-07-20T01:20:53.389Z,21.7
2016-07-20T01:21:03.384Z,21.7
2016-07-20T01:21:13.379Z,21.7
2016-07-20T01:21:23.376Z,21.7
2016-07-20T01:21:33.371Z,21.7
2016-07-20T01:21:43.368Z,21.7
2016-07-20T01:21:53.364Z,21.7
2016-07-20T01:22:03.359Z,21.7
2016-07-20T01:22:13.357Z,21.7
2016-07-20T01:22:23.349Z,21.7
2016-07-20T01:22:33.344Z,21.7
2016-07-20T01:22:43.341Z,21.7
2016-07-20T01:22:53.334Z,21.7
2016-07-20T01:23:03.335Z,21.7
2016-07-20T01:23:13.331Z,21.7
2016-07-20T01:23:23.324Z,21.7
2016-07-20T01:23:33.320Z,21.7
2016-07-20T01:23:43.314Z,21.7
2016-07-20T01:23:53.311Z,21.7
2016-07-20T01:24:03.308Z,21.6
2016-07-20T01:24:13.304Z,21.6
2016-07-20T01:24:23.296Z,21.6
2016-07-20T01:24:33.296Z,21.6
2016-07-20T01:24:43.287Z,21.6
2016-07-20T01:24:53.285Z,21.6
2016-07-20T01:25:03.282Z,21.6
2016-07-20T01:25:13.279Z,21.6
2016-07-20T01:25:23.272Z,21.6
2016-07-20T01:25:33.266Z,21.6
2016-07-20T01:25:43.263Z,21.6
2016-07-20T01:25:53.257Z,21.6
2016-07-20T01:26:03.260Z,21.6
2016-07-20T01:26:13.251Z,21.6
2016-07-20T01:26:23.247Z,21.6
2016-07-20T01:26:33.243Z,21.6
2016-07-20T01:26:43.235Z,21.6
2016-07-20T01:26:53.230Z,21.6
2016-07-20T01:27:03.227Z,21.6
2016-07-20T01:27:13.219Z,21.6
2016-07-20T01:27:23.218Z,21.6
2016-07-20T01:27:33.214Z,21.6
2016-07-20T01:27:43.209Z,21.6
2016-07-20T01:27:53.207Z,21.6
2016-07-20T01:28:03.201Z,21.6
2016-07-20T01:28:13.197Z,21.6
2016-07-20T01:28:23.191Z,21.6
2016-07-20T01:28:33.189Z,21.7
2016-07-20T01:28:43.186Z,21.6
2016-07-20T01:28:53.183Z,21.6
2016-07-20T01:29:03.175Z,21.6
2016-07-20T01:29:13.171Z,21.6
2016-07-20T01:29:23.165Z,21.6
2016-07-20T01:29:33.162Z,21.6
2016-07-20T01:29:43.162Z,21.6
2016-07-20T01:29:53.884Z,21.6
2016-07-20T01:30:03.150Z,21.6
2016-07-20T01:30:13.147Z,21.6
2016-07-20T01:30:23.143Z,21.6
2016-07-20T01:30:33.137Z,21.6
2016-07-20T01:30:43.133Z,21.6
2016-07-20T01:30:53.127Z,21.6
2016-07-20T01:31:03.124Z,21.6
2016-07-20T01:31:13.119Z,21.6
2016-07-20T01:31:23.114Z,21.6
2016-07-20T01:31:33.118Z,21.6
2016-07-20T01:31:43.106Z,21.6
2016-07-20T01:31:53.104Z,21.7
2016-07-20T01:32:03.098Z,21.7
2016-07-20T01:32:13.095Z,21.7
2016-07-20T01:32:23.091Z,21.7
2016-07-20T01:32:33.083Z,21.7
2016-07-20T01:32:43.080Z,21.7
2016-07-20T01:32:53.071Z,21.7
2016-07-20T01:33:03.075Z,21.7
2016-07-20T01:33:13.065Z,21.7
2016-07-20T01:33:23.062Z,21.7
2016-07-20T01:33:33.058Z,21.6
2016-07-20T01:33:43.054Z,21.7
2016-07-20T01:33:53.049Z,21.7
2016-07-20T01:34:03.252Z,21.7
2016-07-20T01:34:13.041Z,21.7
2016-07-20T01:34:23.035Z,21.7
2016-07-20T01:34:33.032Z,21.7
2016-07-20T01:34:43.029Z,21.7
2016-07-20T01:34:53.023Z,21.7
2016-07-20T01:35:03.019Z,21.7
2016-07-20T01:35:13.016Z,21.7
2016-07-20T01:35:23.010Z,21.7
2016-07-20T01:35:33.006Z,21.7
2016-07-20T01:35:43.002Z,21.7
2016-07-20T01:35:52.997Z,21.6
2016-07-20T01:36:02.991Z,21.6
2016-07-20T01:36:12.990Z,21.6
2016-07-20T01:36:22.985Z,21.6
2016-07-20T01:36:32.980Z,21.6
2016-07-20T01:36:42.976Z,21.6
2016-07-20T01:36:52.970Z,21.7
2016-07-20T01:37:02.969Z,21.7
2016-07-20T01:37:12.963Z,21.6
2016-07-20T01:37:22.958Z,21.6
2016-07-20T01:37:32.960Z,21.6
2016-07-20T01:37:42.951Z,21.6
2016-07-20T01:37:52.945Z,21.6
2016-07-20T01:38:02.942Z,21.6
2016-07-20T01:38:12.935Z,21.7
2016-07-20T01:38:22.936Z,21.7
2016-07-20T01:38:32.930Z,21.7
2016-07-20T01:38:42.925Z,21.7
2016-07-20T01:38:52.920Z,21.7
2016-07-20T01:39:02.916Z,21.7
2016-07-20T01:39:12.909Z,21.7
2016-07-20T01:39:22.906Z,21.7
2016-07-20T01:39:32.902Z,21.7
2016-07-20T01:39:42.899Z,21.7
2016-07-20T01:39:52.895Z,21.7
2016-07-20T01:40:02.896Z,21.7
2016-07-20T01:40:12.883Z,21.7
2016-07-20T01:40:22.878Z,21.7
2016-07-20T01:40:32.875Z,21.7
2016-07-20T01:40:42.869Z,21.7
2016-07-20T01:40:52.865Z,21.7
2016-07-20T01:41:02.864Z,21.7
2016-07-20T01:41:12.858Z,21.7
2016-07-20T01:41:22.853Z,21.7
2016-07-20T01:41:32.850Z,21.7
2016-07-20T01:41:42.844Z,21.7
2016-07-20T01:41:52.841Z,21.7
2016-07-20T01:42:02.838Z,21.7
2016-07-20T01:42:12.835Z,21.7
2016-07-20T01:42:22.829Z,21.7
2016-07-20T01:42:32.822Z,21.7
2016-07-20T01:42:42.820Z,21.7
2016-07-20T01:42:52.816Z,21.7
2016-07-20T01:43:02.808Z,21.7
2016-07-20T01:43:12.805Z,21.7
2016-07-20T01:43:22.806Z,21.7
2016-07-20T01:43:32.800Z,21.7
2016-07-20T01:43:42.791Z,21.7
2016-07-20T01:43:52.790Z,21.7
2016-07-20T01:44:02.784Z,21.7
2016-07-20T01:44:12.780Z,21.7
2016-07-20T01:44:22.774Z,21.6
2016-07-20T01:44:32.773Z,21.7
2016-07-20T01:44:42.766Z,21.7
2016-07-20T01:44:52.763Z,21.7
2016-07-20T01:45:02.759Z,21.6
2016-07-20T01:45:12.752Z,21.6
2016-07-20T01:45:22.750Z,21.6
2016-07-20T01:45:32.750Z,21.6
2016-07-20T01:45:42.741Z,21.6
2016-07-20T01:45:52.737Z,21.6
2016-07-20T01:46:02.736Z,21.6
2016-07-20T01:46:12.728Z,21.6
2016-07-20T01:46:22.723Z,21.6
2016-07-20T01:46:32.718Z,21.6
2016-07-20T01:46:42.717Z,21.6
2016-07-20T01:46:52.708Z,21.6
2016-07-20T01:47:02.708Z,21.6
2016-07-20T01:47:12.703Z,21.6
2016-07-20T01:47:22.697Z,21.6
2016-07-20T01:47:32.693Z,21.6
2016-07-20T01:47:42.690Z,21.6
2016-07-20T01:47:52.684Z,21.6
2016-07-20T01:48:02.681Z,21.6
2016-07-20T01:48:12.677Z,21.6
2016-07-20T01:48:22.669Z,21.6
2016-07-20T01:48:32.665Z,21.6
2016-07-20T01:48:42.664Z,21.6
2016-07-20T01:48:52.659Z,21.6
2016-07-20T01:49:02.652Z,21.6
2016-07-20T01:49:12.654Z,21.6
2016-07-20T01:49:23.372Z,21.6
2016-07-20T01:49:32.640Z,21.6
2016-07-20T01:49:42.635Z,21.6
2016-07-20T01:49:52.631Z,21.6
2016-07-20T01:50:02.634Z,21.6
2016-07-20T01:50:12.621Z,21.6
2016-07-20T01:50:22.627Z,21.6
2016-07-20T01:50:32.614Z,21.6
2016-07-20T01:50:42.609Z,21.7
2016-07-20T01:50:52.606Z,21.7
2016-07-20T01:51:02.605Z,21.7
2016-07-20T01:51:12.599Z,21.7
2016-07-20T01:51:22.593Z,21.7
2016-07-20T01:51:32.586Z,21.7
2016-07-20T01:51:42.586Z,21.7
2016-07-20T01:51:52.580Z,21.7
2016-07-20T01:52:02.587Z,21.6
2016-07-20T01:52:12.572Z,21.6
2016-07-20T01:52:22.565Z,21.7
2016-07-20T01:52:32.564Z,21.7
2016-07-20T01:52:42.559Z,21.7
2016-07-20T01:52:52.555Z,21.6
2016-07-20T01:53:02.551Z,21.7
2016-07-20T01:53:12.547Z,21.7
2016-07-20T01:53:23.270Z,21.7
2016-07-20T01:53:32.538Z,21.6
2016-07-20T01:53:42.533Z,21.6
2016-07-20T01:53:52.535Z,21.7
2016-07-20T01:54:02.523Z,21.6
2016-07-20T01:54:12.520Z,21.6
2016-07-20T01:54:22.514Z,21.6
2016-07-20T01:54:32.513Z,21.7
2016-07-20T01:54:42.505Z,21.7
2016-07-20T01:54:52.501Z,21.7
2016-07-20T01:55:02.496Z,21.7
2016-07-20T01:55:12.491Z,21.7
2016-07-20T01:55:22.488Z,21.7
2016-07-20T01:55:32.484Z,21.7
2016-07-20T01:55:42.481Z,21.6
2016-07-20T01:55:52.475Z,21.6
2016-07-20T01:56:02.472Z,21.7
2016-07-20T01:56:12.465Z,21.6
2016-07-20T01:56:22.462Z,21.7
2016-07-20T01:56:32.456Z,21.7
2016-07-20T01:56:42.453Z,21.6
2016-07-20T01:56:52.446Z,21.6
2016-07-20T01:57:02.446Z,21.6
2016-07-20T01:57:12.441Z,21.6
2016-07-20T01:57:22.434Z,21.6
2016-07-20T01:57:32.433Z,21.6
2016-07-20T01:57:42.428Z,21.6
2016-07-20T01:57:52.423Z,21.6
2016-07-20T01:58:02.419Z,21.6
2016-07-20T01:58:12.412Z,21.6
2016-07-20T01:58:22.408Z,21.6
2016-07-20T01:58:32.404Z,21.6
2016-07-20T01:58:42.403Z,21.6
2016-07-20T01:58:52.395Z,21.6
2016-07-20T01:59:02.392Z,21.6
2016-07-20T01:59:12.391Z,21.6
2016-07-20T01:59:22.383Z,21.6
2016-07-20T01:59:32.380Z,21.6
2016-07-20T01:59:42.377Z,21.6
2016-07-20T01:59:52.377Z,21.6
2016-07-20T02:00:02.369Z,21.6
2016-07-20T02:00:12.364Z,21.6
2016-07-20T02:00:22.357Z,21.6
2016-07-20T02:00:32.354Z,21.6
2016-07-20T02:00:42.350Z,21.6
2016-07-20T02:00:52.343Z,21.6
2016-07-20T02:01:02.340Z,21.6
2016-07-20T02:01:12.337Z,21.6
2016-07-20T02:01:22.331Z,21.6
2016-07-20T02:01:32.328Z,21.6
2016-07-20T02:01:42.323Z,21.6
2016-07-20T02:01:52.319Z,21.6
2016-07-20T02:02:02.313Z,21.6
2016-07-20T02:02:12.317Z,21.6
2016-07-20T02:02:22.305Z,21.6
2016-07-20T02:02:32.302Z,21.6
2016-07-20T02:02:42.305Z,21.6
2016-07-20T02:02:52.290Z,21.6
2016-07-20T02:03:02.287Z,21.6
2016-07-20T02:03:12.283Z,21.6
2016-07-20T02:03:22.276Z,21.6
2016-07-20T02:03:33.010Z,21.6
2016-07-20T02:03:42.269Z,21.6
2016-07-20T02:03:52.266Z,21.6
2016-07-20T02:04:02.261Z,21.6
2016-07-20T02:04:12.256Z,21.6
2016-07-20T02:04:22.253Z,21.6
2016-07-20T02:04:32.251Z,21.6
2016-07-20T02:04:42.243Z,21.6
2016-07-20T02:04:52.238Z,21.6
2016-07-20T02:05:02.236Z,21.6
2016-07-20T02:05:12.230Z,21.6
2016-07-20T02:05:22.226Z,21.6
2016-07-20T02:05:32.223Z,21.6
2016-07-20T02:05:42.218Z,21.6
2016-07-20T02:05:52.215Z,21.6
2016-07-20T02:06:02.211Z,21.6
2016-07-20T02:06:12.207Z,21.6
2016-07-20T02:06:22.200Z,21.6
2016-07-20T02:06:32.198Z,21.6
2016-07-20T02:06:42.189Z,21.6
2016-07-20T02:06:52.188Z,21.6
2016-07-20T02:07:02.184Z,21.6
2016-07-20T02:07:12.182Z,21.6
2016-07-20T02:07:22.174Z,21.6
2016-07-20T02:07:32.171Z,21.6
2016-07-20T02:07:42.165Z,21.6
2016-07-20T02:07:52.165Z,21.6
2016-07-20T02:08:02.158Z,21.6
2016-07-20T02:08:12.158Z,21.6
2016-07-20T02:08:22.149Z,21.6
2016-07-20T02:08:32.142Z,21.5
2016-07-20T02:08:42.140Z,21.5
2016-07-20T02:08:52.135Z,21.6
2016-07-20T02:09:02.129Z,21.5
2016-07-20T02:09:12.129Z,21.5
2016-07-20T02:09:22.122Z,21.5
2016-07-20T02:09:32.118Z,21.5
2016-07-20T02:09:42.115Z,21.5
2016-07-20T02:09:52.106Z,21.5
2016-07-20T02:10:02.102Z,21.5
2016-07-20T02:10:12.099Z,21.5
2016-07-20T02:10:22.095Z,21.5
2016-07-20T02:10:32.091Z,21.5
2016-07-20T02:10:42.088Z,21.5
2016-07-20T02:10:52.083Z,21.5
2016-07-20T02:11:02.075Z,21.5
2016-07-20T02:11:12.074Z,21.5
2016-07-20T02:11:22.074Z,21.5
2016-07-20T02:11:32.064Z,21.5
2016-07-20T02:11:42.058Z,21.5
2016-07-20T02:11:52.054Z,21.5
2016-07-20T02:12:02.052Z,21.5
2016-07-20T02:12:12.046Z,21.5
2016-07-20T02:12:22.042Z,21.5
2016-07-20T02:12:32.051Z,21.5
2016-07-20T02:12:42.033Z,21.5
2016-07-20T02:12:52.028Z,21.5
2016-07-20T02:13:02.025Z,21.5
2016-07-20T02:13:12.022Z,21.5
2016-07-20T02:13:22.017Z,21.5
2016-07-20T02:13:32.012Z,21.5
2016-07-20T02:13:42.008Z,21.5
2016-07-20T02:13:52.006Z,21.5
2016-07-20T02:14:02.002Z,21.5